sensor_id;sensor_type;location;lat;lon;timestamp;pressure;altitude;pressure_sealevel;temperature;humidity
11329;BME280;5719;42.714;23.732;2023-09-18T00:00:23;94957.06;;;18.05;100.00
11329;BME280;5719;42.714;23.732;2023-09-18T00:02:51;94957.59;;;18.09;100.00
11329;BME280;5719;42.714;23.732;2023-09-18T00:05:18;94962.53;;;18.12;100.00
11329;BME280;5719;42.714;23.732;2023-09-18T00:07:45;94952.22;;;18.10;100.00
11329;BME280;5719;42.714;23.732;2023-09-18T00:10:12;94948.25;;;18.06;100.00
11329;BME280;5719;42.714;23.732;2023-09-18T00:12:39;94955.94;;;18.08;100.00
11329;BME280;5719;42.714;23.732;2023-09-18T00:15:07;94950.03;;;18.06;100.00
11329;BME280;5719;42.714;23.732;2023-09-18T00:17:35;94952.50;;;18.07;100.00
11329;BME280;5719;42.714;23.732;2023-09-18T00:20:04;94961.72;;;18.11;100.00
11329;BME280;5719;42.714;23.732;2023-09-18T00:22:32;94952.22;;;18.10;100.00
11329;BME280;5719;42.714;23.732;2023-09-18T00:24:59;94943.16;;;18.05;100.00
11329;BME280;5719;42.714;23.732;2023-09-18T00:27:26;94937.50;;;18.00;100.00
11329;BME280;5719;42.714;23.732;2023-09-18T00:29:53;94924.34;;;17.92;100.00
11329;BME280;5719;42.714;23.732;2023-09-18T00:32:20;94938.69;;;17.88;100.00
11329;BME280;5719;42.714;23.732;2023-09-18T00:34:47;94929.31;;;17.85;100.00
11329;BME280;5719;42.714;23.732;2023-09-18T00:37:15;94942.97;;;17.79;100.00
11329;BME280;5719;42.714;23.732;2023-09-18T00:39:42;94937.47;;;17.73;100.00
11329;BME280;5719;42.714;23.732;2023-09-18T00:42:09;94943.97;;;17.69;100.00
11329;BME280;5719;42.714;23.732;2023-09-18T00:44:39;94937.34;;;17.64;100.00
11329;BME280;5719;42.714;23.732;2023-09-18T00:47:07;94949.31;;;17.67;100.00
11329;BME280;5719;42.714;23.732;2023-09-18T00:49:34;94945.44;;;17.71;100.00
11329;BME280;5719;42.714;23.732;2023-09-18T00:52:02;94942.16;;;17.69;100.00
11329;BME280;5719;42.714;23.732;2023-09-18T00:54:31;94948.34;;;17.78;100.00
11329;BME280;5719;42.714;23.732;2023-09-18T00:56:59;94956.19;;;17.78;100.00
11329;BME280;5719;42.714;23.732;2023-09-18T00:59:26;94949.97;;;17.79;100.00
11329;BME280;5719;42.714;23.732;2023-09-18T01:01:53;94952.59;;;17.79;100.00
11329;BME280;5719;42.714;23.732;2023-09-18T01:04:21;94955.06;;;17.80;100.00
11329;BME280;5719;42.714;23.732;2023-09-18T01:06:48;94957.53;;;17.82;100.00
11329;BME280;5719;42.714;23.732;2023-09-18T01:09:16;94953.00;;;17.84;100.00
11329;BME280;5719;42.714;23.732;2023-09-18T01:11:52;94963.06;;;17.79;100.00
11329;BME280;5719;42.714;23.732;2023-09-18T01:14:25;94954.53;;;17.77;100.00
11329;BME280;5719;42.714;23.732;2023-09-18T01:16:58;94959.91;;;17.85;100.00
11329;BME280;5719;42.714;23.732;2023-09-18T01:19:40;94961.44;;;17.78;100.00
11329;BME280;5719;42.714;23.732;2023-09-18T01:22:08;94964.59;;;17.81;100.00
11329;BME280;5719;42.714;23.732;2023-09-18T01:24:38;94958.91;;;17.86;100.00
11329;BME280;5719;42.714;23.732;2023-09-18T01:27:08;94963.28;;;17.95;100.00
11329;BME280;5719;42.714;23.732;2023-09-18T01:29:35;94970.56;;;18.01;100.00
11329;BME280;5719;42.714;23.732;2023-09-18T01:32:03;94950.75;;;17.98;100.00
11329;BME280;5719;42.714;23.732;2023-09-18T01:34:33;94954.03;;;18.10;100.00
11329;BME280;5719;42.714;23.732;2023-09-18T01:37:02;94955.94;;;18.08;100.00
11329;BME280;5719;42.714;23.732;2023-09-18T01:39:31;94944.81;;;18.06;100.00
11329;BME280;5719;42.714;23.732;2023-09-18T01:42:01;94954.38;;;18.15;100.00
11329;BME280;5719;42.714;23.732;2023-09-18T01:44:29;94949.75;;;18.09;100.00
11329;BME280;5719;42.714;23.732;2023-09-18T01:46:58;94962.53;;;18.12;100.00
11329;BME280;5719;42.714;23.732;2023-09-18T01:49:30;94958.00;;;18.14;100.00
11329;BME280;5719;42.714;23.732;2023-09-18T01:51:57;94958.97;;;18.13;100.00
11329;BME280;5719;42.714;23.732;2023-09-18T01:54:24;94963.78;;;18.18;100.00
11329;BME280;5719;42.714;23.732;2023-09-18T01:56:51;94954.78;;;18.20;100.00
11329;BME280;5719;42.714;23.732;2023-09-18T01:59:20;94959.72;;;18.23;100.00
11329;BME280;5719;42.714;23.732;2023-09-18T02:01:47;94954.75;;;18.30;100.00
11329;BME280;5719;42.714;23.732;2023-09-18T02:04:14;94956.25;;;18.32;100.00
11329;BME280;5719;42.714;23.732;2023-09-18T02:06:40;94950.19;;;18.32;100.00
11329;BME280;5719;42.714;23.732;2023-09-18T02:09:07;94960.41;;;18.25;100.00
11329;BME280;5719;42.714;23.732;2023-09-18T02:11:36;94966.94;;;18.11;100.00
11329;BME280;5719;42.714;23.732;2023-09-18T02:14:04;94971.09;;;18.14;100.00
11329;BME280;5719;42.714;23.732;2023-09-18T02:16:33;94971.34;;;18.11;100.00
11329;BME280;5719;42.714;23.732;2023-09-18T02:19:00;94966.09;;;18.11;100.00
11329;BME280;5719;42.714;23.732;2023-09-18T02:21:27;94975.50;;;18.13;100.00
11329;BME280;5719;42.714;23.732;2023-09-18T02:23:54;94975.19;;;18.17;100.00
11329;BME280;5719;42.714;23.732;2023-09-18T02:26:22;94972.59;;;18.17;100.00
11329;BME280;5719;42.714;23.732;2023-09-18T02:28:51;94964.72;;;18.17;100.00
11329;BME280;5719;42.714;23.732;2023-09-18T02:31:18;94968.84;;;18.19;100.00
11329;BME280;5719;42.714;23.732;2023-09-18T02:33:47;94968.53;;;18.22;100.00
11329;BME280;5719;42.714;23.732;2023-09-18T02:36:14;94969.38;;;18.23;100.00
11329;BME280;5719;42.714;23.732;2023-09-18T02:38:41;94972.41;;;18.28;100.00
11329;BME280;5719;42.714;23.732;2023-09-18T02:41:08;94968.66;;;18.30;100.00
11329;BME280;5719;42.714;23.732;2023-09-18T02:43:35;94966.72;;;18.32;100.00
11329;BME280;5719;42.714;23.732;2023-09-18T02:46:03;94957.88;;;18.33;100.00
11329;BME280;5719;42.714;23.732;2023-09-18T02:48:30;94959.69;;;18.33;100.00
11329;BME280;5719;42.714;23.732;2023-09-18T02:50:58;94948.69;;;18.29;100.00
11329;BME280;5719;42.714;23.732;2023-09-18T02:53:25;94956.09;;;18.34;100.00
11329;BME280;5719;42.714;23.732;2023-09-18T02:55:55;94945.09;;;18.30;100.00
11329;BME280;5719;42.714;23.732;2023-09-18T02:58:22;94954.31;;;18.34;100.00
11329;BME280;5719;42.714;23.732;2023-09-18T03:00:52;94950.03;;;18.33;100.00
11329;BME280;5719;42.714;23.732;2023-09-18T03:03:19;94964.19;;;18.40;100.00
11329;BME280;5719;42.714;23.732;2023-09-18T03:05:46;94965.72;;;18.43;100.00
11329;BME280;5719;42.714;23.732;2023-09-18T03:08:14;94959.78;;;18.41;100.00
11329;BME280;5719;42.714;23.732;2023-09-18T03:10:42;94959.94;;;18.39;100.00
11329;BME280;5719;42.714;23.732;2023-09-18T03:13:11;94964.59;;;18.45;100.00
11329;BME280;5719;42.714;23.732;2023-09-18T03:15:38;94960.72;;;18.49;100.00
11329;BME280;5719;42.714;23.732;2023-09-18T03:18:06;94952.16;;;18.47;100.00
11329;BME280;5719;42.714;23.732;2023-09-18T03:20:33;94959.47;;;18.53;100.00
11329;BME280;5719;42.714;23.732;2023-09-18T03:23:01;94961.09;;;18.54;100.00
11329;BME280;5719;42.714;23.732;2023-09-18T03:25:30;94969.66;;;18.56;100.00
11329;BME280;5719;42.714;23.732;2023-09-18T03:27:57;94968.53;;;18.59;100.00
11329;BME280;5719;42.714;23.732;2023-09-18T03:30:25;94965.00;;;18.50;100.00
11329;BME280;5719;42.714;23.732;2023-09-18T03:32:52;94967.59;;;18.50;100.00
11329;BME280;5719;42.714;23.732;2023-09-18T03:35:20;94911.56;;;18.16;100.00
11329;BME280;5719;42.714;23.732;2023-09-18T03:37:47;94958.00;;;18.41;100.00
11329;BME280;5719;42.714;23.732;2023-09-18T03:40:15;94939.97;;;18.38;100.00
11329;BME280;5719;42.714;23.732;2023-09-18T03:42:43;94955.78;;;18.46;100.00
11329;BME280;5719;42.714;23.732;2023-09-18T03:45:10;94945.31;;;18.46;100.00
11329;BME280;5719;42.714;23.732;2023-09-18T03:47:37;94950.25;;;18.49;100.00
11329;BME280;5719;42.714;23.732;2023-09-18T03:50:06;94942.38;;;18.49;100.00
11329;BME280;5719;42.714;23.732;2023-09-18T03:52:33;94947.22;;;18.44;100.00
11329;BME280;5719;42.714;23.732;2023-09-18T03:55:00;94945.72;;;18.42;100.00
11329;BME280;5719;42.714;23.732;2023-09-18T03:57:27;94945.34;;;18.37;100.00
11329;BME280;5719;42.714;23.732;2023-09-18T03:59:55;94944.50;;;18.36;100.00
11329;BME280;5719;42.714;23.732;2023-09-18T04:02:24;94946.47;;;18.34;100.00
11329;BME280;5719;42.714;23.732;2023-09-18T04:04:53;94938.75;;;18.33;100.00
11329;BME280;5719;42.714;23.732;2023-09-18T04:07:20;94942.47;;;18.30;100.00
11329;BME280;5719;42.714;23.732;2023-09-18T04:09:47;94936.78;;;18.17;100.00
11329;BME280;5719;42.714;23.732;2023-09-18T04:12:14;94942.38;;;18.22;100.00
11329;BME280;5719;42.714;23.732;2023-09-18T04:14:41;94946.66;;;18.23;100.00
11329;BME280;5719;42.714;23.732;2023-09-18T04:17:09;94948.44;;;18.23;100.00
11329;BME280;5719;42.714;23.732;2023-09-18T04:19:36;94934.16;;;18.17;100.00
11329;BME280;5719;42.714;23.732;2023-09-18T04:22:03;94935.94;;;18.17;100.00
11329;BME280;5719;42.714;23.732;2023-09-18T04:24:30;94923.88;;;18.06;100.00
11329;BME280;5719;42.714;23.732;2023-09-18T04:26:57;94941.84;;;18.19;100.00
11329;BME280;5719;42.714;23.732;2023-09-18T04:29:24;94948.19;;;18.16;100.00
11329;BME280;5719;42.714;23.732;2023-09-18T04:31:51;94952.59;;;18.16;100.00
11329;BME280;5719;42.714;23.732;2023-09-18T04:34:20;94958.78;;;18.14;100.00
11329;BME280;5719;42.714;23.732;2023-09-18T04:36:47;94937.50;;;18.09;100.00
11329;BME280;5719;42.714;23.732;2023-09-18T04:39:14;94957.59;;;18.09;100.00
11329;BME280;5719;42.714;23.732;2023-09-18T04:41:41;94955.94;;;18.08;100.00
11329;BME280;5719;42.714;23.732;2023-09-18T04:44:08;94957.88;;;18.06;100.00
11329;BME280;5719;42.714;23.732;2023-09-18T04:46:38;94950.16;;;18.04;100.00
11329;BME280;5719;42.714;23.732;2023-09-18T04:49:07;94958.72;;;18.06;100.00
11329;BME280;5719;42.714;23.732;2023-09-18T04:51:38;94960.63;;;18.04;100.00
11329;BME280;5719;42.714;23.732;2023-09-18T04:54:07;94955.28;;;18.06;100.00
11329;BME280;5719;42.714;23.732;2023-09-18T04:56:34;94960.88;;;18.11;100.00
11329;BME280;5719;42.714;23.732;2023-09-18T04:59:00;94959.91;;;18.12;100.00
11329;BME280;5719;42.714;23.732;2023-09-18T05:01:27;94956.34;;;18.13;100.00
11329;BME280;5719;42.714;23.732;2023-09-18T05:03:55;94958.66;;;18.16;100.00
11329;BME280;5719;42.714;23.732;2023-09-18T05:06:22;94949.84;;;18.17;100.00
11329;BME280;5719;42.714;23.732;2023-09-18T05:08:50;94949.16;;;18.15;100.00
11329;BME280;5719;42.714;23.732;2023-09-18T05:11:18;94948.19;;;18.16;100.00
11329;BME280;5719;42.714;23.732;2023-09-18T05:13:46;94944.16;;;18.22;100.00
11329;BME280;5719;42.714;23.732;2023-09-18T05:16:13;94933.56;;;18.23;100.00
11329;BME280;5719;42.714;23.732;2023-09-18T05:18:40;94944.81;;;18.33;100.00
11329;BME280;5719;42.714;23.732;2023-09-18T05:21:09;94940.94;;;18.37;100.00
11329;BME280;5719;42.714;23.732;2023-09-18T05:23:36;94948.59;;;18.48;100.00
11329;BME280;5719;42.714;23.732;2023-09-18T05:26:04;94951.03;;;18.59;100.00
11329;BME280;5719;42.714;23.732;2023-09-18T05:28:31;94957.63;;;18.64;100.00
11329;BME280;5719;42.714;23.732;2023-09-18T05:30:58;94952.91;;;18.67;100.00
11329;BME280;5719;42.714;23.732;2023-09-18T05:33:26;94954.41;;;18.70;100.00
11329;BME280;5719;42.714;23.732;2023-09-18T05:35:54;94964.44;;;18.74;100.00
11329;BME280;5719;42.714;23.732;2023-09-18T05:38:21;94962.34;;;18.78;100.00
11329;BME280;5719;42.714;23.732;2023-09-18T05:40:48;94959.00;;;18.85;100.00
11329;BME280;5719;42.714;23.732;2023-09-18T05:43:16;94946.28;;;18.90;100.00
11329;BME280;5719;42.714;23.732;2023-09-18T05:45:43;94959.19;;;19.01;100.00
11329;BME280;5719;42.714;23.732;2023-09-18T05:48:10;94944.19;;;18.94;100.00
11329;BME280;5719;42.714;23.732;2023-09-18T05:50:38;94964.16;;;19.13;100.00
11329;BME280;5719;42.714;23.732;2023-09-18T05:53:06;94969.66;;;19.19;100.00
11329;BME280;5719;42.714;23.732;2023-09-18T05:55:33;94962.31;;;19.23;100.00
11329;BME280;5719;42.714;23.732;2023-09-18T05:58:01;94959.38;;;19.26;100.00
11329;BME280;5719;42.714;23.732;2023-09-18T06:00:31;94968.81;;;19.36;100.00
11329;BME280;5719;42.714;23.732;2023-09-18T06:02:58;94962.28;;;19.40;100.00
11329;BME280;5719;42.714;23.732;2023-09-18T06:05:25;94966.66;;;19.49;100.00
11329;BME280;5719;42.714;23.732;2023-09-18T06:07:52;94965.47;;;19.44;100.00
11329;BME280;5719;42.714;23.732;2023-09-18T06:10:19;94968.31;;;19.50;100.00
11329;BME280;5719;42.714;23.732;2023-09-18T06:12:46;94973.34;;;19.44;100.00
11329;BME280;5719;42.714;23.732;2023-09-18T06:15:13;94965.31;;;19.45;100.00
11329;BME280;5719;42.714;23.732;2023-09-18T06:17:42;94973.81;;;19.65;100.00
11329;BME280;5719;42.714;23.732;2023-09-18T06:20:11;94972.41;;;19.71;99.47
11329;BME280;5719;42.714;23.732;2023-09-18T06:22:39;94981.00;;;19.81;98.33
11329;BME280;5719;42.714;23.732;2023-09-18T06:25:07;94983.00;;;19.87;98.01
11329;BME280;5719;42.714;23.732;2023-09-18T06:27:36;94969.78;;;19.71;97.65
11329;BME280;5719;42.714;23.732;2023-09-18T06:30:03;94959.38;;;19.87;97.81
11329;BME280;5719;42.714;23.732;2023-09-18T06:32:30;94975.56;;;20.08;99.14
11329;BME280;5719;42.714;23.732;2023-09-18T06:35:00;94965.44;;;20.13;98.38
11329;BME280;5719;42.714;23.732;2023-09-18T06:37:27;94969.91;;;20.21;98.21
11329;BME280;5719;42.714;23.732;2023-09-18T06:39:55;94962.19;;;20.19;97.75
11329;BME280;5719;42.714;23.732;2023-09-18T06:42:22;94970.06;;;20.19;95.10
11329;BME280;5719;42.714;23.732;2023-09-18T06:44:49;94977.59;;;20.14;95.09
11329;BME280;5719;42.714;23.732;2023-09-18T06:47:16;94977.88;;;20.11;93.72
11329;BME280;5719;42.714;23.732;2023-09-18T06:49:43;94975.88;;;20.05;93.01
11329;BME280;5719;42.714;23.732;2023-09-18T06:52:11;94976.72;;;20.05;92.77
11329;BME280;5719;42.714;23.732;2023-09-18T06:54:38;94966.34;;;20.04;93.01
11329;BME280;5719;42.714;23.732;2023-09-18T06:57:06;94970.81;;;20.03;91.24
11329;BME280;5719;42.714;23.732;2023-09-18T06:59:33;94975.81;;;20.23;92.67
11329;BME280;5719;42.714;23.732;2023-09-18T07:02:00;94970.72;;;20.47;89.77
11329;BME280;5719;42.714;23.732;2023-09-18T07:04:27;94966.56;;;20.78;89.21
11329;BME280;5719;42.714;23.732;2023-09-18T07:06:54;94974.91;;;21.16;87.00
11329;BME280;5719;42.714;23.732;2023-09-18T07:09:23;94965.88;;;21.34;84.51
11329;BME280;5719;42.714;23.732;2023-09-18T07:11:51;94971.47;;;21.56;84.18
11329;BME280;5719;42.714;23.732;2023-09-18T07:14:18;94951.25;;;21.56;83.03
11329;BME280;5719;42.714;23.732;2023-09-18T07:16:45;94966.84;;;21.82;82.29
11329;BME280;5719;42.714;23.732;2023-09-18T07:19:12;94965.34;;;21.87;81.50
11329;BME280;5719;42.714;23.732;2023-09-18T07:21:43;94958.09;;;21.89;80.42
11329;BME280;5719;42.714;23.732;2023-09-18T07:24:10;94965.50;;;22.10;80.66
11329;BME280;5719;42.714;23.732;2023-09-18T07:26:45;94966.09;;;22.36;79.74
11329;BME280;5719;42.714;23.732;2023-09-18T07:29:13;94966.00;;;22.61;78.25
11329;BME280;5719;42.714;23.732;2023-09-18T07:31:41;94954.06;;;22.81;76.52
11329;BME280;5719;42.714;23.732;2023-09-18T07:34:08;94961.19;;;23.03;76.46
11329;BME280;5719;42.714;23.732;2023-09-18T07:36:35;94973.63;;;23.17;76.84
11329;BME280;5719;42.714;23.732;2023-09-18T07:39:02;94965.03;;;23.23;75.70
11329;BME280;5719;42.714;23.732;2023-09-18T07:41:29;94972.16;;;23.46;74.16
11329;BME280;5719;42.714;23.732;2023-09-18T07:43:58;94972.22;;;23.60;71.78
11329;BME280;5719;42.714;23.732;2023-09-18T07:46:25;94969.25;;;23.78;70.10
11329;BME280;5719;42.714;23.732;2023-09-18T07:48:52;94978.31;;;23.98;68.99
11329;BME280;5719;42.714;23.732;2023-09-18T07:51:19;94979.00;;;24.15;70.59
11329;BME280;5719;42.714;23.732;2023-09-18T07:53:46;94968.91;;;24.18;67.57
11329;BME280;5719;42.714;23.732;2023-09-18T07:56:13;94964.34;;;24.41;67.25
11329;BME280;5719;42.714;23.732;2023-09-18T07:58:40;94973.44;;;24.68;65.51
11329;BME280;5719;42.714;23.732;2023-09-18T08:01:09;94972.19;;;24.50;65.13
11329;BME280;5719;42.714;23.732;2023-09-18T08:03:36;94974.53;;;24.45;66.25
11329;BME280;5719;42.714;23.732;2023-09-18T08:06:03;94976.00;;;24.76;66.72
11329;BME280;5719;42.714;23.732;2023-09-18T08:08:31;94965.03;;;24.79;66.10
11329;BME280;5719;42.714;23.732;2023-09-18T08:11:00;94965.50;;;24.68;65.10
11329;BME280;5719;42.714;23.732;2023-09-18T08:13:34;94961.75;;;24.04;67.62
11329;BME280;5719;42.714;23.732;2023-09-18T08:16:01;94957.84;;;23.32;69.81
11329;BME280;5719;42.714;23.732;2023-09-18T08:18:30;94957.53;;;23.58;71.78
11329;BME280;5719;42.714;23.732;2023-09-18T08:20:57;94950.00;;;24.07;70.36
11329;BME280;5719;42.714;23.732;2023-09-18T08:23:25;94958.59;;;24.53;66.97
11329;BME280;5719;42.714;23.732;2023-09-18T08:25:53;94954.91;;;24.83;66.89
11329;BME280;5719;42.714;23.732;2023-09-18T08:28:22;94945.19;;;25.19;65.10
11329;BME280;5719;42.714;23.732;2023-09-18T08:30:49;94948.25;;;25.23;64.00
11329;BME280;5719;42.714;23.732;2023-09-18T08:33:16;94946.66;;;25.07;63.30
11329;BME280;5719;42.714;23.732;2023-09-18T08:35:44;94948.69;;;25.05;64.20
11329;BME280;5719;42.714;23.732;2023-09-18T08:38:12;94941.88;;;25.17;63.31
11329;BME280;5719;42.714;23.732;2023-09-18T08:40:41;94943.38;;;24.69;63.25
11329;BME280;5719;42.714;23.732;2023-09-18T08:43:10;94938.38;;;24.81;64.26
11329;BME280;5719;42.714;23.732;2023-09-18T08:45:43;94942.63;;;25.11;63.56
11329;BME280;5719;42.714;23.732;2023-09-18T08:48:13;94934.41;;;25.42;62.19
11329;BME280;5719;42.714;23.732;2023-09-18T08:50:40;94938.00;;;25.77;61.14
11329;BME280;5719;42.714;23.732;2023-09-18T08:53:10;94930.94;;;26.12;58.29
11329;BME280;5719;42.714;23.732;2023-09-18T08:55:37;94927.41;;;26.32;56.87
11329;BME280;5719;42.714;23.732;2023-09-18T08:58:06;94929.13;;;26.53;58.47
11329;BME280;5719;42.714;23.732;2023-09-18T09:00:33;94926.88;;;26.85;56.61
11329;BME280;5719;42.714;23.732;2023-09-18T09:03:02;94919.22;;;27.29;54.51
11329;BME280;5719;42.714;23.732;2023-09-18T09:05:30;94927.88;;;27.84;54.45
11329;BME280;5719;42.714;23.732;2023-09-18T09:07:58;94914.41;;;28.11;52.59
11329;BME280;5719;42.714;23.732;2023-09-18T09:10:26;94919.06;;;28.29;50.99
11329;BME280;5719;42.714;23.732;2023-09-18T09:12:55;94918.88;;;28.04;51.48
11329;BME280;5719;42.714;23.732;2023-09-18T09:15:23;94919.91;;;28.10;51.80
11329;BME280;5719;42.714;23.732;2023-09-18T09:17:52;94922.97;;;28.27;51.06
11329;BME280;5719;42.714;23.732;2023-09-18T09:20:27;94920.03;;;28.48;51.00
11329;BME280;5719;42.714;23.732;2023-09-18T09:23:00;94920.28;;;28.40;48.31
11329;BME280;5719;42.714;23.732;2023-09-18T09:25:29;94914.25;;;28.64;48.98
11329;BME280;5719;42.714;23.732;2023-09-18T09:27:58;94915.78;;;28.98;49.81
11329;BME280;5719;42.714;23.732;2023-09-18T09:30:27;94922.75;;;28.99;48.84
11329;BME280;5719;42.714;23.732;2023-09-18T09:32:55;94909.84;;;28.45;47.92
11329;BME280;5719;42.714;23.732;2023-09-18T09:35:23;94907.78;;;28.40;48.38
11329;BME280;5719;42.714;23.732;2023-09-18T09:37:53;94914.00;;;27.75;49.84
11329;BME280;5719;42.714;23.732;2023-09-18T09:40:21;94915.13;;;27.26;51.86
11329;BME280;5719;42.714;23.732;2023-09-18T09:42:52;94901.44;;;27.16;50.96
11329;BME280;5719;42.714;23.732;2023-09-18T09:45:26;94910.00;;;27.18;51.57
11329;BME280;5719;42.714;23.732;2023-09-18T09:47:54;94900.03;;;27.40;51.77
11329;BME280;5719;42.714;23.732;2023-09-18T09:50:22;94898.03;;;27.55;50.97
11329;BME280;5719;42.714;23.732;2023-09-18T09:52:52;94893.50;;;27.43;51.99
11329;BME280;5719;42.714;23.732;2023-09-18T09:55:21;94880.22;;;27.29;52.43
11329;BME280;5719;42.714;23.732;2023-09-18T09:57:52;94895.53;;;27.41;50.17
11329;BME280;5719;42.714;23.732;2023-09-18T10:00:23;94894.94;;;27.39;49.82
11329;BME280;5719;42.714;23.732;2023-09-18T10:03:00;94899.47;;;27.84;51.11
11329;BME280;5719;42.714;23.732;2023-09-18T10:05:31;94891.91;;;27.81;48.92
11329;BME280;5719;42.714;23.732;2023-09-18T10:08:02;94891.91;;;27.48;48.61
11329;BME280;5719;42.714;23.732;2023-09-18T10:10:30;94893.97;;;27.46;51.08
11329;BME280;5719;42.714;23.732;2023-09-18T10:13:04;94893.13;;;27.46;50.02
11329;BME280;5719;42.714;23.732;2023-09-18T10:15:36;94888.19;;;27.43;51.88
11329;BME280;5719;42.714;23.732;2023-09-18T10:18:07;94892.88;;;27.34;51.70
11329;BME280;5719;42.714;23.732;2023-09-18T10:20:40;94891.47;;;27.45;51.10
11329;BME280;5719;42.714;23.732;2023-09-18T10:23:20;94886.41;;;27.50;50.71
11329;BME280;5719;42.714;23.732;2023-09-18T10:25:54;94890.03;;;27.42;50.86
11329;BME280;5719;42.714;23.732;2023-09-18T10:28:24;94892.31;;;27.52;50.48
11329;BME280;5719;42.714;23.732;2023-09-18T10:30:56;94883.69;;;27.37;52.38
11329;BME280;5719;42.714;23.732;2023-09-18T10:33:25;94877.34;;;27.31;52.55
11329;BME280;5719;42.714;23.732;2023-09-18T10:35:53;94873.09;;;27.63;51.78
11329;BME280;5719;42.714;23.732;2023-09-18T10:38:21;94878.22;;;27.71;52.04
11329;BME280;5719;42.714;23.732;2023-09-18T10:40:49;94882.91;;;27.62;50.45
11329;BME280;5719;42.714;23.732;2023-09-18T10:43:17;94882.50;;;27.59;50.88
11329;BME280;5719;42.714;23.732;2023-09-18T10:45:46;94875.56;;;27.51;50.59
11329;BME280;5719;42.714;23.732;2023-09-18T10:48:14;94878.84;;;27.60;50.11
11329;BME280;5719;42.714;23.732;2023-09-18T10:50:43;94863.50;;;27.49;49.09
11329;BME280;5719;42.714;23.732;2023-09-18T10:53:11;94862.06;;;27.59;49.70
11329;BME280;5719;42.714;23.732;2023-09-18T10:55:39;94866.16;;;27.55;50.02
11329;BME280;5719;42.714;23.732;2023-09-18T10:58:08;94853.91;;;27.48;50.45
11329;BME280;5719;42.714;23.732;2023-09-18T11:00:35;94857.59;;;27.47;51.58
11329;BME280;5719;42.714;23.732;2023-09-18T11:03:14;94852.47;;;27.45;50.96
11329;BME280;5719;42.714;23.732;2023-09-18T11:05:44;94857.38;;;27.55;51.30
11329;BME280;5719;42.714;23.732;2023-09-18T11:08:29;94856.56;;;27.67;51.34
11329;BME280;5719;42.714;23.732;2023-09-18T11:11:01;94795.03;;;27.05;50.87
11329;BME280;5719;42.714;23.732;2023-09-18T11:13:36;94847.94;;;27.06;51.37
11329;BME280;5719;42.714;23.732;2023-09-18T11:16:16;94857.09;;;26.97;51.75
11329;BME280;5719;42.714;23.732;2023-09-18T11:18:47;94857.91;;;26.91;51.09
11329;BME280;5719;42.714;23.732;2023-09-18T11:21:18;94856.25;;;26.84;53.34
11329;BME280;5719;42.714;23.732;2023-09-18T11:23:57;94853.72;;;26.69;52.38
11329;BME280;5719;42.714;23.732;2023-09-18T11:26:28;94846.78;;;26.68;53.01
11329;BME280;5719;42.714;23.732;2023-09-18T11:28:55;94839.34;;;26.44;53.11
11329;BME280;5719;42.714;23.732;2023-09-18T11:31:44;94849.50;;;26.33;54.02
11329;BME280;5719;42.714;23.732;2023-09-18T11:34:14;94840.50;;;26.28;53.68
11329;BME280;5719;42.714;23.732;2023-09-18T11:36:41;94839.03;;;26.19;53.61
11329;BME280;5719;42.714;23.732;2023-09-18T11:39:08;94834.25;;;26.49;54.70
11329;BME280;5719;42.714;23.732;2023-09-18T11:41:37;94833.38;;;26.89;52.72
11329;BME280;5719;42.714;23.732;2023-09-18T11:44:33;94828.34;;;27.34;52.68
11329;BME280;5719;42.714;23.732;2023-09-18T11:47:03;94829.75;;;27.69;50.67
11329;BME280;5719;42.714;23.732;2023-09-18T11:49:35;94817.72;;;27.60;50.07
11329;BME280;5719;42.714;23.732;2023-09-18T11:52:02;94813.84;;;27.56;50.40
11329;BME280;5719;42.714;23.732;2023-09-18T11:54:32;94800.78;;;27.61;51.42
11329;BME280;5719;42.714;23.732;2023-09-18T11:57:03;94808.06;;;28.11;50.39
11329;BME280;5719;42.714;23.732;2023-09-18T11:59:37;94810.88;;;28.16;48.63
11329;BME280;5719;42.714;23.732;2023-09-18T12:02:04;94806.75;;;28.27;49.38
11329;BME280;5719;42.714;23.732;2023-09-18T12:04:35;94811.63;;;28.37;49.42
11329;BME280;5719;42.714;23.732;2023-09-18T12:07:04;94805.41;;;28.56;49.45
11329;BME280;5719;42.714;23.732;2023-09-18T12:09:31;94803.28;;;28.78;48.49
11329;BME280;5719;42.714;23.732;2023-09-18T12:11:59;94794.47;;;29.08;47.79
11329;BME280;5719;42.714;23.732;2023-09-18T12:14:30;94805.41;;;29.32;46.71
11329;BME280;5719;42.714;23.732;2023-09-18T12:16:58;94796.16;;;29.34;46.11
11329;BME280;5719;42.714;23.732;2023-09-18T12:19:25;94797.19;;;29.58;44.94
11329;BME280;5719;42.714;23.732;2023-09-18T12:21:54;94788.13;;;29.84;44.24
11329;BME280;5719;42.714;23.732;2023-09-18T12:24:21;94798.28;;;30.11;43.94
11329;BME280;5719;42.714;23.732;2023-09-18T12:26:48;94792.50;;;30.33;44.20
11329;BME280;5719;42.714;23.732;2023-09-18T12:29:15;94787.38;;;30.49;44.45
11329;BME280;5719;42.714;23.732;2023-09-18T12:31:42;94781.28;;;30.12;42.38
11329;BME280;5719;42.714;23.732;2023-09-18T12:34:14;94790.56;;;29.85;42.54
11329;BME280;5719;42.714;23.732;2023-09-18T12:36:42;94792.66;;;29.77;43.49
11329;BME280;5719;42.714;23.732;2023-09-18T12:39:14;94790.63;;;29.36;44.44
11329;BME280;5719;42.714;23.732;2023-09-18T12:41:43;94788.19;;;28.96;44.84
11329;BME280;5719;42.714;23.732;2023-09-18T12:44:11;94792.25;;;29.05;45.32
11329;BME280;5719;42.714;23.732;2023-09-18T12:46:40;94788.25;;;29.21;45.07
11329;BME280;5719;42.714;23.732;2023-09-18T12:49:17;94790.31;;;29.44;45.20
11329;BME280;5719;42.714;23.732;2023-09-18T12:51:54;94770.91;;;29.61;45.26
11329;BME280;5719;42.714;23.732;2023-09-18T12:54:36;94765.16;;;29.83;44.77
11329;BME280;5719;42.714;23.732;2023-09-18T12:57:04;94769.03;;;29.87;44.44
11329;BME280;5719;42.714;23.732;2023-09-18T12:59:32;94768.91;;;29.75;43.96
11329;BME280;5719;42.714;23.732;2023-09-18T13:01:59;94773.69;;;30.09;45.00